createdAt,value
2017-08-19T00:00:54.203Z,953.39
2017-08-19T00:01:54.199Z,953.42
2017-08-19T00:02:54.195Z,953.37
2017-08-19T00:03:54.207Z,953.43
2017-08-19T00:04:54.187Z,953.44
2017-08-19T00:05:54.184Z,953.42
2017-08-19T00:06:54.180Z,953.48
2017-08-19T00:07:54.175Z,953.52
2017-08-19T00:08:54.173Z,953.5
2017-08-19T00:09:54.168Z,953.55
2017-08-19T00:10:54.164Z,953.55
2017-08-19T00:11:54.159Z,953.56
2017-08-19T00:12:54.169Z,953.52
2017-08-19T00:13:54.152Z,953.52
2017-08-19T00:14:54.148Z,953.54
2017-08-19T00:15:54.144Z,953.54
2017-08-19T00:16:54.139Z,953.55
2017-08-19T00:17:54.136Z,953.56
2017-08-19T00:18:54.143Z,953.59
2017-08-19T00:19:54.148Z,953.54
2017-08-19T00:20:54.324Z,953.59
2017-08-19T00:21:54.119Z,953.53
2017-08-19T00:22:54.114Z,953.55
2017-08-19T00:23:54.109Z,953.57
2017-08-19T00:24:54.105Z,953.52
2017-08-19T00:25:54.101Z,953.54
2017-08-19T00:26:54.096Z,953.54
2017-08-19T00:27:54.093Z,953.53
2017-08-19T00:28:54.088Z,953.52
2017-08-19T00:29:54.083Z,953.52
2017-08-19T00:30:54.078Z,953.51
2017-08-19T00:31:54.074Z,953.49
2017-08-19T00:32:54.075Z,953.51
2017-08-19T00:33:54.064Z,953.55
2017-08-19T00:34:54.061Z,953.5
2017-08-19T00:35:54.058Z,953.54
2017-08-19T00:36:54.054Z,953.53
2017-08-19T00:37:54.048Z,953.51
2017-08-19T00:38:54.044Z,953.51
2017-08-19T00:39:54.040Z,953.53
2017-08-19T00:40:54.034Z,953.51
2017-08-19T00:41:54.031Z,953.54
2017-08-19T00:42:54.027Z,953.51
2017-08-19T00:43:54.022Z,953.5
2017-08-19T00:44:54.018Z,953.5
2017-08-19T00:45:54.013Z,953.5
2017-08-19T00:46:54.009Z,953.45
2017-08-19T00:47:54.004Z,953.47
2017-08-19T00:48:54.014Z,953.46
2017-08-19T00:49:53.996Z,953.47
2017-08-19T00:50:53.991Z,953.51
2017-08-19T00:51:53.986Z,953.52
2017-08-19T00:52:53.982Z,953.51
2017-08-19T00:53:53.977Z,953.56
2017-08-19T00:54:53.973Z,953.54
2017-08-19T00:55:53.968Z,953.51
2017-08-19T00:56:53.964Z,953.5
2017-08-19T00:57:53.958Z,953.51
2017-08-19T00:58:53.955Z,953.55
2017-08-19T00:59:53.950Z,953.55
2017-08-19T01:00:53.951Z,953.57
2017-08-19T01:01:53.941Z,953.51
2017-08-19T01:02:53.936Z,953.51
2017-08-19T01:03:53.932Z,953.51
2017-08-19T01:04:53.927Z,953.5
2017-08-19T01:05:53.925Z,953.48
2017-08-19T01:06:53.918Z,953.48
2017-08-19T01:07:53.913Z,953.53
2017-08-19T01:08:53.907Z,953.54
2017-08-19T01:09:53.904Z,953.57
2017-08-19T01:10:53.900Z,953.59
2017-08-19T01:11:53.895Z,953.59
2017-08-19T01:12:53.892Z,953.6
2017-08-19T01:13:53.886Z,953.61
2017-08-19T01:14:53.881Z,953.65
2017-08-19T01:15:53.876Z,953.68
2017-08-19T01:16:53.872Z,953.67
2017-08-19T01:17:53.866Z,953.74
2017-08-19T01:18:53.862Z,953.69
2017-08-19T01:19:53.858Z,953.75
2017-08-19T01:20:53.854Z,953.75
2017-08-19T01:21:53.873Z,953.79
2017-08-19T01:22:53.847Z,953.75
2017-08-19T01:23:53.840Z,953.77
2017-08-19T01:24:53.836Z,953.77
2017-08-19T01:25:53.830Z,953.78
2017-08-19T01:26:53.834Z,953.75
2017-08-19T01:27:53.821Z,953.76
2017-08-19T01:28:53.816Z,953.66
2017-08-19T01:29:53.813Z,953.65
2017-08-19T01:30:53.809Z,953.62
2017-08-19T01:31:53.802Z,953.6
2017-08-19T01:32:53.797Z,953.62
2017-08-19T01:33:53.794Z,953.59
2017-08-19T01:34:53.789Z,953.6
2017-08-19T01:35:53.782Z,953.63
2017-08-19T01:36:53.779Z,953.63
2017-08-19T01:37:53.775Z,953.66
2017-08-19T01:38:53.770Z,953.61
2017-08-19T01:39:53.765Z,953.6
2017-08-19T01:40:53.760Z,953.55
2017-08-19T01:41:53.755Z,953.57
2017-08-19T01:42:53.749Z,953.55
2017-08-19T01:43:53.745Z,953.58
2017-08-19T01:44:53.771Z,953.58
2017-08-19T01:45:53.736Z,953.58
2017-08-19T01:46:53.733Z,953.63
2017-08-19T01:47:53.725Z,953.61
2017-08-19T01:48:53.721Z,953.67
2017-08-19T01:49:53.716Z,953.69
2017-08-19T01:50:53.711Z,953.66
2017-08-19T01:51:53.706Z,953.71
2017-08-19T01:52:53.701Z,953.77
2017-08-19T01:53:53.696Z,953.84
2017-08-19T01:54:53.691Z,953.82
2017-08-19T01:55:53.686Z,953.85
2017-08-19T01:56:53.682Z,953.81
2017-08-19T01:57:53.675Z,953.85
2017-08-19T01:58:53.671Z,953.81
2017-08-19T01:59:53.666Z,953.85
2017-08-19T02:00:53.662Z,953.88
2017-08-19T02:01:53.656Z,953.86
2017-08-19T02:02:53.652Z,953.82
2017-08-19T02:03:53.647Z,953.81
2017-08-19T02:04:53.645Z,953.79
2017-08-19T02:05:53.651Z,953.82
2017-08-19T02:06:53.630Z,953.83
2017-08-19T02:07:53.639Z,953.84
2017-08-19T02:08:53.619Z,953.82
2017-08-19T02:09:53.614Z,953.79
2017-08-19T02:10:53.610Z,953.75
2017-08-19T02:11:53.603Z,953.72
2017-08-19T02:12:53.597Z,953.8
2017-08-19T02:13:53.610Z,953.8
2017-08-19T02:14:53.590Z,953.8
2017-08-19T02:15:53.583Z,953.81
2017-08-19T02:16:53.581Z,953.81
2017-08-19T02:17:53.586Z,953.75
2017-08-19T02:18:53.569Z,953.8
2017-08-19T02:19:53.562Z,953.82
2017-08-19T02:20:53.557Z,953.79
2017-08-19T02:21:53.551Z,953.78
2017-08-19T02:22:53.547Z,953.82
2017-08-19T02:23:53.541Z,953.82
2017-08-19T02:24:53.536Z,953.78
2017-08-19T02:25:53.531Z,953.82
2017-08-19T02:26:53.538Z,953.9
2017-08-19T02:27:53.519Z,953.94
2017-08-19T02:28:53.514Z,953.95
2017-08-19T02:29:53.509Z,953.93
2017-08-19T02:30:53.504Z,953.92
2017-08-19T02:31:53.499Z,953.88
2017-08-19T02:32:53.493Z,953.89
2017-08-19T02:33:53.488Z,953.89
2017-08-19T02:34:53.482Z,953.84
2017-08-19T02:35:53.499Z,953.8
2017-08-19T02:36:53.472Z,953.79
2017-08-19T02:37:53.467Z,953.75
2017-08-19T02:38:53.461Z,953.74
2017-08-19T02:39:53.455Z,953.71
2017-08-19T02:40:53.462Z,953.68
2017-08-19T02:41:53.444Z,953.61
2017-08-19T02:42:53.439Z,953.66
2017-08-19T02:43:53.440Z,953.68
2017-08-19T02:44:53.430Z,953.71
2017-08-19T02:45:53.423Z,953.68
2017-08-19T02:46:53.418Z,953.67
2017-08-19T02:47:53.414Z,953.64
2017-08-19T02:48:53.420Z,953.67
2017-08-19T02:49:53.403Z,953.65
2017-08-19T02:50:53.397Z,953.67
2017-08-19T02:51:53.392Z,953.65
2017-08-19T02:52:53.386Z,953.7
2017-08-19T02:53:53.407Z,953.76
2017-08-19T02:54:53.376Z,953.78
2017-08-19T02:55:53.371Z,953.79
2017-08-19T02:56:53.366Z,953.83
2017-08-19T02:57:53.361Z,953.84
2017-08-19T02:58:53.390Z,953.88
2017-08-19T02:59:53.349Z,953.82
2017-08-19T03:00:53.346Z,953.87
2017-08-19T03:01:53.339Z,953.88
2017-08-19T03:02:53.335Z,953.83
2017-08-19T03:03:53.330Z,953.89
2017-08-19T03:04:53.324Z,953.89
2017-08-19T03:05:53.318Z,953.88
2017-08-19T03:06:53.312Z,953.89
2017-08-19T03:07:53.307Z,953.91
2017-08-19T03:08:53.302Z,953.98
2017-08-19T03:09:53.297Z,953.97
2017-08-19T03:10:53.291Z,954.04
2017-08-19T03:11:53.287Z,954.03
2017-08-19T03:12:53.281Z,954.02
2017-08-19T03:13:53.277Z,954.06
2017-08-19T03:14:53.270Z,954.04
2017-08-19T03:15:53.264Z,954.04
2017-08-19T03:16:53.258Z,954.06
2017-08-19T03:17:53.254Z,954.01
2017-08-19T03:18:53.247Z,954.01
2017-08-19T03:19:53.243Z,954.05
2017-08-19T03:20:53.252Z,954.04
2017-08-19T03:21:53.231Z,954.06
2017-08-19T03:22:53.227Z,954.01
2017-08-19T03:23:53.222Z,954.03
2017-08-19T03:24:53.218Z,954
2017-08-19T03:25:53.211Z,954.05
2017-08-19T03:26:53.206Z,953.96
2017-08-19T03:27:53.207Z,953.97
2017-08-19T03:28:53.196Z,953.98
2017-08-19T03:29:53.192Z,954.02
2017-08-19T03:30:53.186Z,954.02
2017-08-19T03:31:53.180Z,953.97
2017-08-19T03:32:53.174Z,953.92
2017-08-19T03:33:53.168Z,953.9
2017-08-19T03:34:53.164Z,953.9
2017-08-19T03:35:53.159Z,953.89
2017-08-19T03:36:53.153Z,953.87
2017-08-19T03:37:53.147Z,953.87
2017-08-19T03:38:53.156Z,953.89
2017-08-19T03:39:53.137Z,953.91
2017-08-19T03:40:53.132Z,953.93
2017-08-19T03:41:53.127Z,953.92
2017-08-19T03:42:53.122Z,953.93
2017-08-19T03:43:53.116Z,953.93
2017-08-19T03:44:53.111Z,953.9
2017-08-19T03:45:53.105Z,953.9
2017-08-19T03:46:53.101Z,953.91
2017-08-19T03:47:53.117Z,953.92
2017-08-19T03:48:53.090Z,953.96
2017-08-19T03:49:53.085Z,953.96
2017-08-19T03:50:53.079Z,953.93
2017-08-19T03:51:53.074Z,953.94
2017-08-19T03:52:53.069Z,953.95
2017-08-19T03:53:53.065Z,953.97
2017-08-19T03:54:53.057Z,953.91
2017-08-19T03:55:53.052Z,953.96
2017-08-19T03:56:53.048Z,953.99
2017-08-19T03:57:53.042Z,953.97
2017-08-19T03:58:53.036Z,954
2017-08-19T03:59:53.033Z,954.02
2017-08-19T04:00:53.026Z,954.07
2017-08-19T04:01:53.032Z,954.01
2017-08-19T04:02:53.016Z,954.05
2017-08-19T04:03:53.010Z,954
2017-08-19T04:04:53.007Z,954.04
2017-08-19T04:05:53.003Z,954.06
2017-08-19T04:06:52.995Z,954
2017-08-19T04:07:52.989Z,954
2017-08-19T04:08:52.984Z,953.99
2017-08-19T04:09:52.977Z,953.99
2017-08-19T04:10:52.971Z,954.02
2017-08-19T04:11:52.967Z,954.07
2017-08-19T04:12:52.961Z,954.1
2017-08-19T04:13:52.975Z,954.09
2017-08-19T04:14:52.950Z,954.1
2017-08-19T04:15:52.945Z,954.14
2017-08-19T04:16:52.939Z,954.16
2017-08-19T04:17:52.934Z,954.22
2017-08-19T04:18:52.929Z,954.23
2017-08-19T04:19:52.923Z,954.29
2017-08-19T04:20:52.918Z,954.26
2017-08-19T04:21:52.917Z,954.32
2017-08-19T04:22:52.909Z,954.34
2017-08-19T04:23:52.900Z,954.44
2017-08-19T04:24:52.896Z,954.43
2017-08-19T04:25:52.890Z,954.51
2017-08-19T04:26:52.886Z,954.54
2017-08-19T04:27:52.879Z,954.53
2017-08-19T04:28:52.875Z,954.54
2017-08-19T04:29:52.869Z,954.53
2017-08-19T04:30:52.864Z,954.54
2017-08-19T04:31:52.859Z,954.54
2017-08-19T04:32:52.874Z,954.54
2017-08-19T04:33:52.848Z,954.56
2017-08-19T04:34:52.842Z,954.56
2017-08-19T04:35:52.837Z,954.55
2017-08-19T04:36:52.831Z,954.53
2017-08-19T04:37:52.827Z,954.56
2017-08-19T04:38:52.821Z,954.5
2017-08-19T04:39:52.815Z,954.49
2017-08-19T04:40:52.809Z,954.47
2017-08-19T04:41:52.803Z,954.46
2017-08-19T04:42:52.799Z,954.42
2017-08-19T04:43:52.793Z,954.42
2017-08-19T04:44:52.789Z,954.43
2017-08-19T04:45:52.782Z,954.43
2017-08-19T04:46:52.793Z,954.45
2017-08-19T04:47:52.771Z,954.46
2017-08-19T04:48:52.765Z,954.46
2017-08-19T04:49:52.767Z,954.49
2017-08-19T04:50:52.754Z,954.49
2017-08-19T04:51:52.750Z,954.53
2017-08-19T04:52:52.743Z,954.55
2017-08-19T04:53:52.738Z,954.51
2017-08-19T04:54:52.733Z,954.57
2017-08-19T04:55:52.745Z,954.56
2017-08-19T04:56:52.723Z,954.58
2017-08-19T04:57:52.717Z,954.55
2017-08-19T04:58:52.712Z,954.6
2017-08-19T04:59:52.705Z,954.62
2017-08-19T05:00:52.701Z,954.59
2017-08-19T05:01:52.697Z,954.59
2017-08-19T05:02:52.691Z,954.59
2017-08-19T05:03:52.684Z,954.64
2017-08-19T05:04:52.690Z,954.64
2017-08-19T05:05:52.674Z,954.68
2017-08-19T05:06:52.676Z,954.64
2017-08-19T05:07:52.664Z,954.7
2017-08-19T05:08:52.659Z,954.71
2017-08-19T05:09:52.652Z,954.74
2017-08-19T05:10:52.649Z,954.76
2017-08-19T05:11:52.641Z,954.73
2017-08-19T05:12:52.649Z,954.79
2017-08-19T05:13:52.632Z,954.83
2017-08-19T05:14:52.629Z,954.86
2017-08-19T05:15:52.628Z,954.93
2017-08-19T05:16:52.624Z,954.95
2017-08-19T05:17:52.612Z,954.98
2017-08-19T05:18:52.628Z,954.97
2017-08-19T05:19:52.601Z,954.95
2017-08-19T05:20:52.594Z,954.98
2017-08-19T05:21:52.602Z,954.93
2017-08-19T05:22:52.604Z,954.96
2017-08-19T05:23:52.578Z,954.97
2017-08-19T05:24:52.572Z,954.95
2017-08-19T05:25:52.575Z,954.94
2017-08-19T05:26:52.563Z,954.92
2017-08-19T05:27:52.557Z,954.93
2017-08-19T05:28:52.553Z,954.87
2017-08-19T05:29:52.547Z,954.91
2017-08-19T05:30:52.542Z,954.87
2017-08-19T05:31:52.537Z,954.9
2017-08-19T05:32:52.533Z,954.89
2017-08-19T05:33:52.526Z,954.9
2017-08-19T05:34:52.521Z,954.9
2017-08-19T05:35:52.516Z,954.89
2017-08-19T05:36:52.510Z,954.91
2017-08-19T05:37:52.505Z,954.9
2017-08-19T05:38:52.500Z,954.92
2017-08-19T05:39:52.496Z,954.9
2017-08-19T05:40:52.490Z,954.91
2017-08-19T05:41:52.485Z,954.89
2017-08-19T05:42:52.480Z,954.93
2017-08-19T05:43:52.474Z,954.92
2017-08-19T05:44:52.469Z,954.95
2017-08-19T05:45:52.464Z,954.96
2017-08-19T05:46:52.460Z,954.99
2017-08-19T05:47:52.454Z,954.99
2017-08-19T05:48:52.449Z,955.07
2017-08-19T05:49:52.445Z,955.02
2017-08-19T05:50:52.439Z,955.04
2017-08-19T05:51:52.433Z,955.03
2017-08-19T05:52:52.431Z,955.06
2017-08-19T05:53:52.425Z,955.09
2017-08-19T05:54:52.420Z,955.02
2017-08-19T05:55:52.414Z,955.05
2017-08-19T05:56:52.409Z,955.06
2017-08-19T05:57:52.405Z,955.03
2017-08-19T05:58:52.399Z,955.09
2017-08-19T05:59:52.394Z,955.09
2017-08-19T06:00:52.393Z,955.09
2017-08-19T06:01:52.384Z,955.1
2017-08-19T06:02:52.380Z,955.11
2017-08-19T06:03:52.375Z,955.17
2017-08-19T06:04:52.370Z,955.2
2017-08-19T06:05:52.366Z,955.23
2017-08-19T06:06:52.362Z,955.22
2017-08-19T06:07:52.357Z,955.24
2017-08-19T06:08:52.352Z,955.26
2017-08-19T06:09:52.455Z,955.26
2017-08-19T06:10:52.342Z,955.28
2017-08-19T06:11:52.337Z,955.31
2017-08-19T06:12:52.359Z,955.34
2017-08-19T06:13:52.328Z,955.35
2017-08-19T06:14:52.323Z,955.37
2017-08-19T06:15:52.319Z,955.4
2017-08-19T06:16:52.314Z,955.42
2017-08-19T06:17:52.309Z,955.4
2017-08-19T06:18:52.305Z,955.38
2017-08-19T06:19:52.300Z,955.41
2017-08-19T06:20:52.295Z,955.47
2017-08-19T06:21:52.290Z,955.48
2017-08-19T06:22:52.290Z,955.52
2017-08-19T06:23:52.282Z,955.56
2017-08-19T06:24:52.278Z,955.59
2017-08-19T06:25:52.274Z,955.56
2017-08-19T06:26:52.268Z,955.56
2017-08-19T06:27:52.263Z,955.58
2017-08-19T06:28:52.259Z,955.58
2017-08-19T06:29:52.258Z,955.59
2017-08-19T06:30:52.249Z,955.61
2017-08-19T06:31:52.245Z,955.61
2017-08-19T06:32:52.241Z,955.56
2017-08-19T06:33:52.236Z,955.55
2017-08-19T06:34:52.233Z,955.55
2017-08-19T06:35:52.227Z,955.53
2017-08-19T06:36:52.223Z,955.58
2017-08-19T06:37:52.220Z,955.55
2017-08-19T06:38:52.215Z,955.56
2017-08-19T06:39:52.211Z,955.62
2017-08-19T06:40:52.210Z,955.64
2017-08-19T06:41:52.202Z,955.62
2017-08-19T06:42:52.198Z,955.63
2017-08-19T06:43:52.194Z,955.63
2017-08-19T06:44:52.188Z,955.63
2017-08-19T06:45:52.185Z,955.68
2017-08-19T06:46:52.180Z,955.67
2017-08-19T06:47:52.177Z,955.65
2017-08-19T06:48:52.173Z,955.7
2017-08-19T06:49:52.169Z,955.71
2017-08-19T06:50:52.164Z,955.7
2017-08-19T06:51:52.161Z,955.7
2017-08-19T06:52:52.156Z,955.77
2017-08-19T06:53:52.153Z,955.73
2017-08-19T06:54:52.149Z,955.73
2017-08-19T06:55:52.145Z,955.77
2017-08-19T06:56:52.142Z,955.78
2017-08-19T06:57:52.137Z,955.79
2017-08-19T06:58:52.133Z,955.81
2017-08-19T06:59:52.130Z,955.81
2017-08-19T07:00:52.144Z,955.81
2017-08-19T07:01:52.123Z,955.83
2017-08-19T07:02:52.118Z,955.85
2017-08-19T07:03:52.115Z,955.83
2017-08-19T07:04:52.110Z,955.82
2017-08-19T07:05:52.108Z,955.85
2017-08-19T07:06:52.104Z,955.81
2017-08-19T07:07:52.101Z,955.85
2017-08-19T07:08:52.097Z,955.89
2017-08-19T07:09:52.094Z,955.85
2017-08-19T07:10:52.090Z,955.88
2017-08-19T07:11:52.086Z,955.9
2017-08-19T07:12:52.097Z,955.88
2017-08-19T07:13:52.101Z,955.88
2017-08-19T07:14:52.076Z,955.85
2017-08-19T07:15:52.073Z,955.85
2017-08-19T07:16:52.069Z,955.86
2017-08-19T07:17:52.066Z,955.85
2017-08-19T07:18:52.076Z,955.84
2017-08-19T07:19:52.059Z,955.8
2017-08-19T07:20:52.056Z,955.83
2017-08-19T07:21:52.052Z,955.83
2017-08-19T07:22:52.068Z,955.87
2017-08-19T07:23:52.064Z,955.98
2017-08-19T07:24:52.042Z,956.13
2017-08-19T07:25:52.039Z,956.04
2017-08-19T07:26:52.035Z,956.2
2017-08-19T07:27:52.032Z,956.18
2017-08-19T07:28:52.053Z,956.05
2017-08-19T07:29:52.027Z,956.4
2017-08-19T07:30:52.022Z,956.53
2017-08-19T07:31:52.021Z,956.46
2017-08-19T07:32:52.019Z,956.12
2017-08-19T07:33:52.015Z,955.95
2017-08-19T07:34:52.013Z,955.93
2017-08-19T07:35:52.011Z,955.98
2017-08-19T07:36:52.009Z,955.92
2017-08-19T07:37:52.006Z,955.89
2017-08-19T07:38:52.004Z,955.92
2017-08-19T07:39:52.002Z,955.94
2017-08-19T07:40:52.001Z,955.89
2017-08-19T07:41:52.000Z,955.92
2017-08-19T07:42:51.998Z,955.93
2017-08-19T07:43:51.997Z,955.93
2017-08-19T07:44:52.197Z,955.92
2017-08-19T07:45:51.993Z,955.92
2017-08-19T07:46:51.992Z,955.9
2017-08-19T07:47:51.992Z,955.98
2017-08-19T07:48:51.988Z,955.95
2017-08-19T07:49:51.987Z,955.97
2017-08-19T07:50:51.986Z,955.99
2017-08-19T07:51:51.984Z,955.99
2017-08-19T07:52:51.982Z,955.99
2017-08-19T07:53:51.981Z,955.99
2017-08-19T07:54:51.980Z,955.99
2017-08-19T07:55:51.979Z,955.92
2017-08-19T07:56:51.977Z,955.97
2017-08-19T07:57:51.976Z,955.95
2017-08-19T07:58:51.975Z,956
2017-08-19T07:59:51.983Z,956.05
2017-08-19T08:00:51.971Z,956.04
2017-08-19T08:01:51.972Z,956.07
2017-08-19T08:02:51.967Z,956.11
2017-08-19T08:03:51.967Z,956.11
2017-08-19T08:04:51.966Z,956.08
2017-08-19T08:05:51.964Z,956.16
2017-08-19T08:06:51.962Z,956.14
2017-08-19T08:07:51.962Z,956.15
2017-08-19T08:08:51.961Z,956.11
2017-08-19T08:09:51.959Z,956.19
2017-08-19T08:10:51.957Z,956.18
2017-08-19T08:11:51.956Z,956.17
2017-08-19T08:12:51.955Z,956.21
2017-08-19T08:13:51.952Z,956.25
2017-08-19T08:14:51.963Z,956.23
2017-08-19T08:15:51.951Z,956.21
2017-08-19T08:16:51.950Z,956.3
2017-08-19T08:17:51.947Z,956.36
2017-08-19T08:18:51.946Z,956.35
2017-08-19T08:19:51.946Z,956.33
2017-08-19T08:20:51.943Z,956.42
2017-08-19T08:21:51.948Z,956.41
2017-08-19T08:22:51.941Z,956.4
2017-08-19T08:23:51.940Z,956.45
2017-08-19T08:24:51.938Z,956.44
2017-08-19T08:25:51.938Z,956.42
2017-08-19T08:26:51.935Z,956.5
2017-08-19T08:27:51.939Z,956.51
2017-08-19T08:28:51.953Z,956.52
2017-08-19T08:29:51.929Z,956.51
2017-08-19T08:30:51.928Z,956.52
2017-08-19T08:31:51.925Z,956.53
2017-08-19T08:32:51.924Z,956.49
2017-08-19T08:33:51.922Z,956.56
2017-08-19T08:34:51.929Z,956.57
2017-08-19T08:35:51.917Z,956.62
2017-08-19T08:36:51.917Z,956.63
2017-08-19T08:37:51.914Z,956.68
2017-08-19T08:38:51.914Z,956.75
2017-08-19T08:39:51.910Z,956.68
2017-08-19T08:40:51.907Z,956.67
2017-08-19T08:41:51.927Z,956.74
2017-08-19T08:42:51.903Z,956.74
2017-08-19T08:43:51.900Z,956.72
2017-08-19T08:44:51.897Z,956.72
2017-08-19T08:45:51.894Z,956.75
2017-08-19T08:46:51.892Z,956.73
2017-08-19T08:47:51.887Z,956.73
2017-08-19T08:48:51.886Z,956.68
2017-08-19T08:49:51.884Z,956.68
2017-08-19T08:50:51.880Z,956.69
2017-08-19T08:51:51.878Z,956.68
2017-08-19T08:52:51.874Z,956.66
2017-08-19T08:53:51.871Z,956.64
2017-08-19T08:54:51.868Z,956.68
2017-08-19T08:55:51.866Z,956.69
2017-08-19T08:56:51.861Z,956.67
2017-08-19T08:57:51.858Z,956.67
2017-08-19T08:58:51.855Z,956.7
2017-08-19T08:59:51.852Z,956.63
2017-08-19T09:00:51.849Z,956.69
2017-08-19T09:01:51.846Z,956.68
2017-08-19T09:02:51.843Z,956.68
2017-08-19T09:03:51.840Z,956.68
2017-08-19T09:04:51.838Z,956.65
2017-08-19T09:05:51.834Z,956.65
2017-08-19T09:06:51.830Z,956.66
2017-08-19T09:07:51.827Z,956.71
2017-08-19T09:08:51.822Z,956.73
2017-08-19T09:09:51.820Z,956.69
2017-08-19T09:10:51.820Z,956.66
2017-08-19T09:11:51.814Z,956.62
2017-08-19T09:12:51.812Z,956.57
2017-08-19T09:13:51.809Z,956.59
2017-08-19T09:14:51.806Z,956.57
2017-08-19T09:15:51.803Z,956.6
2017-08-19T09:16:51.806Z,956.56
2017-08-19T09:17:51.799Z,956.57
2017-08-19T09:18:51.796Z,956.56
2017-08-19T09:19:51.792Z,956.56
2017-08-19T09:20:51.791Z,956.58
2017-08-19T09:21:51.794Z,956.56
2017-08-19T09:22:51.785Z,956.58
2017-08-19T09:23:51.784Z,956.58
2017-08-19T09:24:51.789Z,956.6
2017-08-19T09:25:51.777Z,956.59
2017-08-19T09:26:51.784Z,956.63
2017-08-19T09:27:51.792Z,956.59
2017-08-19T09:28:51.769Z,956.61
2017-08-19T09:29:51.765Z,956.59
2017-08-19T09:30:51.763Z,956.56
2017-08-19T09:31:51.762Z,956.55
2017-08-19T09:32:51.758Z,956.6
2017-08-19T09:33:51.757Z,956.52
2017-08-19T09:34:51.774Z,956.64
2017-08-19T09:35:51.752Z,956.66
2017-08-19T09:36:51.750Z,956.61
2017-08-19T09:37:51.748Z,956.64
2017-08-19T09:38:51.744Z,956.66
2017-08-19T09:39:51.744Z,956.62
2017-08-19T09:40:51.742Z,956.6
2017-08-19T09:41:51.738Z,956.62
2017-08-19T09:42:51.735Z,956.67
2017-08-19T09:43:51.736Z,956.62
2017-08-19T09:44:51.736Z,956.6
2017-08-19T09:45:51.730Z,956.57
2017-08-19T09:46:51.729Z,956.52
2017-08-19T09:47:51.727Z,956.54
2017-08-19T09:48:51.725Z,956.51
2017-08-19T09:49:51.723Z,956.53
2017-08-19T09:50:51.721Z,956.51
2017-08-19T09:51:51.719Z,956.56
2017-08-19T09:52:51.716Z,956.51
2017-08-19T09:53:51.715Z,956.48
2017-08-19T09:54:51.714Z,956.47
2017-08-19T09:55:51.712Z,956.47
2017-08-19T09:56:51.710Z,956.43
2017-08-19T09:57:51.708Z,956.44
2017-08-19T09:58:51.706Z,956.49
2017-08-19T09:59:51.721Z,956.43
2017-08-19T10:00:51.702Z,956.41
2017-08-19T10:01:51.702Z,956.47
2017-08-19T10:02:51.712Z,956.42
2017-08-19T10:03:51.698Z,956.44
2017-08-19T10:04:51.712Z,956.45
2017-08-19T10:05:51.695Z,956.43
2017-08-19T10:06:51.695Z,956.4
2017-08-19T10:07:51.691Z,956.42
2017-08-19T10:08:51.691Z,956.39
2017-08-19T10:09:51.690Z,956.35
2017-08-19T10:10:51.687Z,956.35
2017-08-19T10:11:51.687Z,956.33
2017-08-19T10:12:51.686Z,956.35
2017-08-19T10:13:51.685Z,956.35
2017-08-19T10:14:51.683Z,956.41
2017-08-19T10:15:51.682Z,956.45
2017-08-19T10:16:51.681Z,956.46
2017-08-19T10:17:51.680Z,956.5
2017-08-19T10:18:51.678Z,956.5
2017-08-19T10:19:51.677Z,956.5
2017-08-19T10:20:51.677Z,956.5
2017-08-19T10:21:51.674Z,956.5
2017-08-19T10:22:51.674Z,956.48
2017-08-19T10:23:51.672Z,956.48
2017-08-19T10:24:51.670Z,956.51
2017-08-19T10:25:51.669Z,956.51
2017-08-19T10:26:51.668Z,956.52
2017-08-19T10:27:51.668Z,956.57
2017-08-19T10:28:51.667Z,956.54
2017-08-19T10:29:51.664Z,956.5
2017-08-19T10:30:51.664Z,956.47
2017-08-19T10:31:51.663Z,956.53
2017-08-19T10:32:51.663Z,956.51
2017-08-19T10:33:51.662Z,956.53
2017-08-19T10:34:51.661Z,956.54
2017-08-19T10:35:51.660Z,956.48
2017-08-19T10:36:51.661Z,956.52
2017-08-19T10:37:51.658Z,956.52
2017-08-19T10:38:51.658Z,956.54
2017-08-19T10:39:51.656Z,956.56
2017-08-19T10:40:51.655Z,956.53
2017-08-19T10:41:51.655Z,956.47
2017-08-19T10:42:51.653Z,956.5
2017-08-19T10:43:51.653Z,956.48
2017-08-19T10:44:51.652Z,956.46
2017-08-19T10:45:51.665Z,956.49
2017-08-19T10:46:51.650Z,956.48
2017-08-19T10:47:51.648Z,956.49
2017-08-19T10:48:51.646Z,956.54
2017-08-19T10:49:51.647Z,956.51
2017-08-19T10:50:51.647Z,956.51
2017-08-19T10:51:51.646Z,956.51
2017-08-19T10:52:51.645Z,956.49
2017-08-19T10:53:51.644Z,956.51
2017-08-19T10:54:51.647Z,956.49
2017-08-19T10:55:51.641Z,956.46
2017-08-19T10:56:51.640Z,956.46
2017-08-19T10:57:51.643Z,956.45
2017-08-19T10:58:51.636Z,956.4
2017-08-19T10:59:51.635Z,956.39
2017-08-19T11:00:51.637Z,956.47
2017-08-19T11:01:51.632Z,956.46
2017-08-19T11:02:51.632Z,956.46
2017-08-19T11:03:51.630Z,956.47
2017-08-19T11:04:51.627Z,956.4
2017-08-19T11:05:51.626Z,956.35
2017-08-19T11:06:51.624Z,956.39
2017-08-19T11:07:51.623Z,956.36
2017-08-19T11:08:51.643Z,956.35
2017-08-19T11:09:51.620Z,956.35
2017-08-19T11:10:51.619Z,956.33
2017-08-19T11:11:51.617Z,956.36
2017-08-19T11:12:51.615Z,956.33
2017-08-19T11:13:51.614Z,956.37
2017-08-19T11:14:51.630Z,956.36
2017-08-19T11:15:51.609Z,956.41
2017-08-19T11:16:51.607Z,956.35
2017-08-19T11:17:51.607Z,956.44
2017-08-19T11:18:51.605Z,956.38
2017-08-19T11:19:51.604Z,956.41
2017-08-19T11:20:51.602Z,956.43
2017-08-19T11:21:51.601Z,956.47
2017-08-19T11:22:51.599Z,956.48
2017-08-19T11:23:51.596Z,956.53
2017-08-19T11:24:51.596Z,956.5
2017-08-19T11:25:51.595Z,956.52
2017-08-19T11:26:51.594Z,956.59
2017-08-19T11:27:51.596Z,956.5
2017-08-19T11:28:51.590Z,956.65
2017-08-19T11:29:51.590Z,956.69
2017-08-19T11:30:51.589Z,956.71
2017-08-19T11:31:51.587Z,956.67
2017-08-19T11:32:51.585Z,956.64
2017-08-19T11:33:51.587Z,956.72
2017-08-19T11:34:51.584Z,956.74
2017-08-19T11:35:51.583Z,956.72
2017-08-19T11:36:51.582Z,956.7
2017-08-19T11:37:51.582Z,956.7
2017-08-19T11:38:51.584Z,956.7
2017-08-19T11:39:51.580Z,956.72
2017-08-19T11:40:51.580Z,956.7
2017-08-19T11:41:51.579Z,956.71
2017-08-19T11:42:51.577Z,956.7
2017-08-19T11:43:51.577Z,956.77
2017-08-19T11:44:51.577Z,956.75
2017-08-19T11:45:51.575Z,956.75
2017-08-19T11:46:51.575Z,956.77
2017-08-19T11:47:51.574Z,956.77
2017-08-19T11:48:51.573Z,956.83
2017-08-19T11:49:51.572Z,956.8
2017-08-19T11:50:51.576Z,956.76
2017-08-19T11:51:51.569Z,956.78
2017-08-19T11:52:51.570Z,956.8
2017-08-19T11:53:51.568Z,956.7
2017-08-19T11:54:51.572Z,956.72
2017-08-19T11:55:51.570Z,956.74
2017-08-19T11:56:51.565Z,956.81
2017-08-19T11:57:51.564Z,956.75
2017-08-19T11:58:51.580Z,956.8
2017-08-19T11:59:51.563Z,956.78
2017-08-19T12:00:51.561Z,956.76
2017-08-19T12:01:51.560Z,956.76
2017-08-19T12:02:51.559Z,956.73
2017-08-19T12:03:51.559Z,956.72
2017-08-19T12:04:51.557Z,956.8
2017-08-19T12:05:51.559Z,956.72
2017-08-19T12:06:51.555Z,956.77
2017-08-19T12:07:51.556Z,956.78
2017-08-19T12:08:51.552Z,956.79
2017-08-19T12:09:51.552Z,956.84
2017-08-19T12:10:51.551Z,956.75
2017-08-19T12:11:51.572Z,956.77
2017-08-19T12:12:51.548Z,956.76
2017-08-19T12:13:51.547Z,956.75
2017-08-19T12:14:51.547Z,956.82
2017-08-19T12:15:51.545Z,956.77
2017-08-19T12:16:51.545Z,956.8
2017-08-19T12:17:51.544Z,956.87
2017-08-19T12:18:51.542Z,956.79
2017-08-19T12:19:51.541Z,956.88
2017-08-19T12:20:51.542Z,956.82
2017-08-19T12:21:51.539Z,956.82
2017-08-19T12:22:51.536Z,956.81
2017-08-19T12:23:51.537Z,956.8
2017-08-19T12:24:51.535Z,956.79
2017-08-19T12:25:51.534Z,956.81
2017-08-19T12:26:51.534Z,956.77
2017-08-19T12:27:51.536Z,956.79
2017-08-19T12:28:51.532Z,956.77
2017-08-19T12:29:51.530Z,956.8
2017-08-19T12:30:51.529Z,956.75
2017-08-19T12:31:51.528Z,956.77